createdAt,value
2018-08-09T00:00:58.274Z,20.71
2018-08-09T00:03:26.105Z,20.71
2018-08-09T00:05:53.725Z,20.70
2018-08-09T00:08:21.446Z,20.73
2018-08-09T00:10:49.461Z,20.74
2018-08-09T00:13:17.094Z,20.73
2018-08-09T00:15:44.737Z,20.73
2018-08-09T00:18:12.650Z,20.73
2018-08-09T00:20:40.226Z,20.72
2018-08-09T00:23:07.869Z,20.72
2018-08-09T00:25:35.723Z,20.73
2018-08-09T00:28:03.427Z,20.72
2018-08-09T00:30:31.005Z,20.70
2018-08-09T00:32:58.864Z,20.71
2018-08-09T00:35:26.465Z,20.70
2018-08-09T00:37:54.097Z,20.69
2018-08-09T00:40:21.933Z,20.69
2018-08-09T00:42:49.549Z,20.69
2018-08-09T00:45:17.113Z,20.69
2018-08-09T00:47:45.030Z,20.68
2018-08-09T00:50:12.650Z,20.66
2018-08-09T00:52:40.236Z,20.68
2018-08-09T00:55:07.969Z,20.66
2018-08-09T00:57:35.585Z,20.64
2018-08-09T01:00:03.298Z,20.61
2018-08-09T01:02:31.084Z,20.59
2018-08-09T01:04:58.643Z,20.58
2018-08-09T01:07:26.267Z,20.55
2018-08-09T01:09:53.980Z,20.55
2018-08-09T01:12:21.519Z,20.54
2018-08-09T01:15:20.052Z,20.54
2018-08-09T01:17:47.659Z,20.54
2018-08-09T01:20:15.247Z,20.55
2018-08-09T01:22:43.144Z,20.57
2018-08-09T01:25:10.710Z,20.55
2018-08-09T01:27:38.297Z,20.57
2018-08-09T01:30:06.497Z,20.57
2018-08-09T01:32:34.091Z,20.58
2018-08-09T01:35:01.702Z,20.59
2018-08-09T01:37:29.577Z,20.61
2018-08-09T01:39:57.210Z,20.60
2018-08-09T01:42:36.301Z,20.59
2018-08-09T01:45:04.003Z,20.57
2018-08-09T01:47:31.585Z,20.55
2018-08-09T01:49:59.427Z,20.56
2018-08-09T01:52:27.038Z,20.55
2018-08-09T01:54:54.597Z,20.54
2018-08-09T01:57:22.253Z,20.53
2018-08-09T01:59:49.872Z,20.51
2018-08-09T02:02:17.491Z,20.46
2018-08-09T02:04:45.394Z,20.43
2018-08-09T02:07:13.018Z,20.43
2018-08-09T02:09:40.658Z,20.40
2018-08-09T02:12:08.595Z,20.38
2018-08-09T02:14:36.210Z,20.36
2018-08-09T02:17:03.978Z,20.36
2018-08-09T02:19:31.757Z,20.35
2018-08-09T02:21:59.412Z,20.33
2018-08-09T02:24:27.021Z,20.33
2018-08-09T02:26:55.144Z,20.32
2018-08-09T02:29:22.730Z,20.31
2018-08-09T02:31:50.561Z,20.29
2018-08-09T02:34:18.283Z,20.32
2018-08-09T02:36:45.822Z,20.33
2018-08-09T02:39:13.482Z,20.34
2018-08-09T02:41:41.293Z,20.32
2018-08-09T02:44:08.902Z,20.32
2018-08-09T02:46:36.605Z,20.29
2018-08-09T02:49:04.320Z,20.27
2018-08-09T02:51:31.983Z,20.26
2018-08-09T02:53:59.604Z,20.26
2018-08-09T02:56:27.363Z,20.26
2018-08-09T02:58:55.037Z,20.26
2018-08-09T03:01:22.666Z,20.26
2018-08-09T03:03:50.437Z,20.26
2018-08-09T03:06:18.204Z,20.26
2018-08-09T03:08:45.769Z,20.25
2018-08-09T03:11:13.491Z,20.24
2018-08-09T03:13:41.248Z,20.23
2018-08-09T03:16:08.720Z,20.23
2018-08-09T03:18:36.454Z,20.23
2018-08-09T03:22:06.940Z,20.24
2018-08-09T03:24:34.565Z,20.24
2018-08-09T03:27:01.958Z,20.23
2018-08-09T03:29:29.437Z,20.22
2018-08-09T03:31:57.289Z,20.20
2018-08-09T03:34:24.714Z,20.19
2018-08-09T03:36:52.155Z,20.20
2018-08-09T03:39:19.892Z,20.19
2018-08-09T03:41:47.326Z,20.19
2018-08-09T03:44:14.798Z,20.19
2018-08-09T03:46:42.421Z,20.20
2018-08-09T03:49:09.903Z,20.23
2018-08-09T03:51:37.403Z,20.24
2018-08-09T03:54:05.131Z,20.25
2018-08-09T03:56:32.611Z,20.28
2018-08-09T03:59:00.046Z,20.28
2018-08-09T04:01:27.850Z,20.28
2018-08-09T04:03:55.318Z,20.18
2018-08-09T04:06:23.133Z,20.27
2018-08-09T04:08:50.770Z,20.26
2018-08-09T04:11:18.229Z,20.26
2018-08-09T04:13:45.699Z,20.25
2018-08-09T04:16:13.352Z,20.26
2018-08-09T04:18:40.885Z,20.25
2018-08-09T04:21:08.389Z,20.26
2018-08-09T04:23:36.110Z,20.26
2018-08-09T04:26:03.613Z,20.27
2018-08-09T04:28:31.119Z,20.26
2018-08-09T04:30:58.806Z,20.21
2018-08-09T04:33:26.463Z,20.27
2018-08-09T04:35:53.924Z,20.27
2018-08-09T04:38:21.669Z,20.29
2018-08-09T04:40:49.101Z,20.30
2018-08-09T04:43:16.640Z,20.30
2018-08-09T04:45:44.383Z,20.29
2018-08-09T04:48:11.838Z,20.27
2018-08-09T04:50:39.294Z,20.27
2018-08-09T04:53:06.927Z,20.28
2018-08-09T04:55:34.418Z,20.30
2018-08-09T04:58:01.981Z,20.32
2018-08-09T05:00:29.633Z,20.32
2018-08-09T05:02:57.074Z,20.32
2018-08-09T05:05:24.556Z,20.31
2018-08-09T05:07:52.217Z,20.30
2018-08-09T05:10:19.706Z,20.30
2018-08-09T05:12:47.228Z,20.30
2018-08-09T05:15:14.832Z,20.33
2018-08-09T05:17:42.334Z,20.35
2018-08-09T05:20:09.845Z,20.38
2018-08-09T05:22:37.470Z,20.40
2018-08-09T05:25:05.326Z,20.41
2018-08-09T05:27:32.834Z,20.43
2018-08-09T05:30:00.331Z,20.45
2018-08-09T05:32:27.849Z,20.50
2018-08-09T05:35:02.116Z,20.52
2018-08-09T05:37:29.648Z,20.53
2018-08-09T05:39:57.174Z,20.57
2018-08-09T05:42:24.722Z,20.60
2018-08-09T05:44:52.247Z,20.63
2018-08-09T05:47:19.793Z,20.67
2018-08-09T05:49:47.472Z,20.70
2018-08-09T05:52:14.964Z,20.74
2018-08-09T05:54:42.434Z,20.76
2018-08-09T05:57:10.048Z,20.79
2018-08-09T05:59:37.546Z,20.83
2018-08-09T06:02:05.299Z,20.88
2018-08-09T06:04:32.970Z,20.90
2018-08-09T06:07:00.438Z,20.94
2018-08-09T06:09:27.973Z,20.97
2018-08-09T06:11:55.711Z,21.02
2018-08-09T06:14:23.236Z,21.07
2018-08-09T06:16:50.764Z,21.15
2018-08-09T06:19:18.457Z,21.21
2018-08-09T06:21:45.957Z,21.27
2018-08-09T06:24:13.425Z,21.32
2018-08-09T06:26:41.085Z,21.34
2018-08-09T06:29:08.582Z,21.39
2018-08-09T06:31:36.105Z,21.42
2018-08-09T06:34:03.858Z,21.46
2018-08-09T06:36:31.568Z,21.53
2018-08-09T06:38:59.119Z,21.55
2018-08-09T06:41:26.960Z,21.58
2018-08-09T06:43:54.420Z,21.62
2018-08-09T06:46:21.879Z,21.65
2018-08-09T06:48:49.642Z,21.68
2018-08-09T06:51:17.124Z,21.71
2018-08-09T06:53:44.545Z,21.73
2018-08-09T06:56:12.301Z,21.77
2018-08-09T06:58:39.790Z,21.80
2018-08-09T07:01:07.271Z,21.83
2018-08-09T07:03:35.023Z,21.88
2018-08-09T07:06:02.462Z,21.93
2018-08-09T07:08:29.905Z,21.95
2018-08-09T07:10:57.548Z,22.00
2018-08-09T07:13:25.230Z,22.07
2018-08-09T07:15:52.725Z,22.13
2018-08-09T07:18:20.346Z,22.17
2018-08-09T07:20:47.877Z,22.21
2018-08-09T07:23:15.320Z,22.20
2018-08-09T07:25:43.046Z,22.16
2018-08-09T07:28:10.518Z,22.13
2018-08-09T07:30:37.995Z,22.11
2018-08-09T07:33:05.751Z,22.07
2018-08-09T07:35:33.257Z,22.04
2018-08-09T07:38:00.956Z,22.03
2018-08-09T07:40:28.592Z,22.00
2018-08-09T07:42:56.050Z,21.99
2018-08-09T07:45:23.570Z,21.94
2018-08-09T07:47:51.311Z,21.92
2018-08-09T07:50:18.739Z,21.89
2018-08-09T07:52:46.223Z,21.86
2018-08-09T07:55:13.798Z,21.85
2018-08-09T07:57:41.225Z,21.88
2018-08-09T08:00:10.552Z,21.92
2018-08-09T08:02:38.163Z,21.96
2018-08-09T08:05:05.829Z,21.99
2018-08-09T08:07:33.380Z,22.04
2018-08-09T08:10:01.095Z,22.07
2018-08-09T08:12:28.518Z,22.12
2018-08-09T08:14:56.246Z,22.16
2018-08-09T08:17:23.739Z,22.21
2018-08-09T08:19:51.184Z,22.27
2018-08-09T08:22:18.756Z,22.33
2018-08-09T08:24:46.373Z,22.28
2018-08-09T08:27:13.847Z,22.45
2018-08-09T08:29:41.440Z,22.52
2018-08-09T08:32:09.076Z,22.59
2018-08-09T08:34:36.516Z,22.62
2018-08-09T08:37:04.122Z,22.67
2018-08-09T08:39:31.961Z,22.69
2018-08-09T08:41:59.418Z,22.72
2018-08-09T08:44:26.952Z,22.76
2018-08-09T08:46:54.625Z,22.80
2018-08-09T08:49:22.088Z,22.84
2018-08-09T08:51:49.497Z,22.87
2018-08-09T08:54:17.102Z,22.91
2018-08-09T08:56:44.705Z,22.97
2018-08-09T08:59:12.188Z,23.05
2018-08-09T09:01:39.866Z,23.14
2018-08-09T09:04:07.470Z,23.20
2018-08-09T09:06:34.919Z,23.26
2018-08-09T09:09:02.688Z,23.30
2018-08-09T09:11:30.403Z,23.32
2018-08-09T09:13:57.878Z,23.33
2018-08-09T09:16:25.559Z,23.36
2018-08-09T09:18:53.063Z,23.39
2018-08-09T09:21:20.549Z,23.43
2018-08-09T09:23:48.131Z,23.47
2018-08-09T09:26:15.771Z,23.49
2018-08-09T09:28:43.327Z,23.55
2018-08-09T09:31:11.064Z,23.62
2018-08-09T09:33:38.568Z,23.71
2018-08-09T09:36:06.016Z,23.80
2018-08-09T09:38:33.597Z,23.86
2018-08-09T09:41:01.315Z,23.93
2018-08-09T09:43:28.745Z,24.02
2018-08-09T09:45:56.376Z,24.18
2018-08-09T09:48:23.874Z,24.40
2018-08-09T09:50:51.301Z,24.66
2018-08-09T09:53:18.996Z,24.90
2018-08-09T09:55:46.480Z,25.18
2018-08-09T09:58:14.010Z,25.43
2018-08-09T10:00:47.120Z,25.64
2018-08-09T10:03:14.641Z,25.83
2018-08-09T10:05:42.125Z,25.99
2018-08-09T10:08:09.574Z,26.15
2018-08-09T10:10:37.186Z,26.31
2018-08-09T10:13:04.674Z,26.50
2018-08-09T10:15:32.236Z,26.64
2018-08-09T10:17:59.854Z,26.77
2018-08-09T10:20:27.259Z,26.94
2018-08-09T10:22:54.713Z,27.07
2018-08-09T10:25:22.432Z,27.20
2018-08-09T10:27:49.863Z,27.31
2018-08-09T10:30:17.273Z,27.39
2018-08-09T10:32:44.985Z,27.49
2018-08-09T10:35:12.437Z,27.61
2018-08-09T10:37:39.870Z,27.71
2018-08-09T10:40:07.605Z,27.75
2018-08-09T10:42:35.296Z,27.79
2018-08-09T10:45:02.836Z,27.93
2018-08-09T10:47:30.682Z,28.06
2018-08-09T10:49:58.174Z,28.20
2018-08-09T10:52:25.678Z,28.32
2018-08-09T10:54:53.289Z,28.43
2018-08-09T10:57:20.790Z,28.49
2018-08-09T10:59:48.255Z,28.52
2018-08-09T11:02:15.821Z,28.53
2018-08-09T11:04:43.264Z,28.59
2018-08-09T11:07:10.846Z,28.60
2018-08-09T11:09:38.555Z,28.64
2018-08-09T11:12:06.073Z,28.68
2018-08-09T11:14:33.556Z,28.74
2018-08-09T11:17:01.356Z,28.85
2018-08-09T11:19:28.839Z,28.89
2018-08-09T11:21:56.233Z,28.88
2018-08-09T11:24:23.923Z,28.89
2018-08-09T11:26:51.463Z,28.93
2018-08-09T11:29:18.914Z,29.04
2018-08-09T11:31:47.479Z,29.10
2018-08-09T11:34:14.952Z,29.12
2018-08-09T11:36:42.441Z,29.14
2018-08-09T11:39:11.586Z,29.23
2018-08-09T11:41:39.046Z,29.31
2018-08-09T11:44:07.034Z,29.35
2018-08-09T11:46:34.654Z,29.37
2018-08-09T11:49:02.099Z,29.30
2018-08-09T11:51:29.524Z,29.21
2018-08-09T11:53:57.199Z,29.15
2018-08-09T11:56:24.684Z,29.08
2018-08-09T11:58:52.220Z,29.07
2018-08-09T12:01:19.923Z,29.10
2018-08-09T12:03:47.527Z,29.14
2018-08-09T12:06:15.028Z,29.14
2018-08-09T12:08:42.596Z,29.12
2018-08-09T12:11:10.146Z,29.18
2018-08-09T12:13:37.766Z,29.28
2018-08-09T12:16:05.474Z,29.36
2018-08-09T12:18:32.959Z,29.38
2018-08-09T12:21:00.689Z,29.40
2018-08-09T12:23:28.276Z,29.45
2018-08-09T12:25:55.822Z,29.45
2018-08-09T12:28:23.351Z,29.47
2018-08-09T12:30:51.115Z,29.47
2018-08-09T12:36:49.132Z,29.16
2018-08-09T12:39:16.676Z,28.94
2018-08-09T12:41:44.251Z,28.69
2018-08-09T12:44:12.134Z,28.48
2018-08-09T12:46:39.699Z,28.32
2018-08-09T12:49:07.307Z,28.17
2018-08-09T12:51:34.967Z,28.18
2018-08-09T12:54:33.054Z,28.26
2018-08-09T12:57:00.814Z,28.39
2018-08-09T12:59:28.296Z,28.49
2018-08-09T13:01:55.932Z,28.49
2018-08-09T13:04:23.710Z,28.48
2018-08-09T13:06:51.247Z,28.53
2018-08-09T13:09:18.748Z,28.49
2018-08-09T13:11:46.451Z,28.34
2018-08-09T13:14:14.036Z,28.41
2018-08-09T13:16:41.490Z,28.39
2018-08-09T13:19:09.151Z,28.39
2018-08-09T13:21:36.644Z,28.40
2018-08-09T13:24:04.155Z,28.38
2018-08-09T13:26:31.846Z,28.34
2018-08-09T13:28:59.366Z,28.28
2018-08-09T13:31:27.209Z,28.21
2018-08-09T13:33:54.985Z,28.15
2018-08-09T13:36:22.574Z,28.06
2018-08-09T13:38:50.132Z,27.90
2018-08-09T13:41:17.971Z,27.78
2018-08-09T13:43:45.774Z,27.69
2018-08-09T13:46:13.435Z,27.62
2018-08-09T13:48:41.128Z,27.52
2018-08-09T13:51:08.932Z,27.44
2018-08-09T13:53:36.415Z,27.36
2018-08-09T13:56:04.550Z,27.35
2018-08-09T13:58:32.143Z,27.37
2018-08-09T14:00:59.631Z,27.38
2018-08-09T14:03:27.371Z,27.37
2018-08-09T14:05:54.842Z,27.35
2018-08-09T14:08:22.333Z,27.32
2018-08-09T14:10:50.200Z,27.29
2018-08-09T14:13:17.654Z,27.27
2018-08-09T14:15:45.223Z,27.23
2018-08-09T14:18:12.892Z,27.20
2018-08-09T14:20:40.392Z,27.17
2018-08-09T14:23:07.896Z,27.19
2018-08-09T14:25:35.708Z,27.16
2018-08-09T14:30:37.609Z,27.04
2018-08-09T14:33:05.763Z,27.00
2018-08-09T14:35:33.256Z,26.98
2018-08-09T14:38:01.022Z,26.93
2018-08-09T14:40:28.500Z,26.87
2018-08-09T14:42:56.065Z,26.81
2018-08-09T14:45:23.774Z,26.78
2018-08-09T14:47:51.359Z,26.75
2018-08-09T14:50:18.919Z,26.75
2018-08-09T14:52:46.533Z,26.72
2018-08-09T14:55:14.994Z,26.70
2018-08-09T14:57:42.678Z,26.71
2018-08-09T15:00:14.277Z,26.74
2018-08-09T15:02:41.929Z,26.75
2018-08-09T15:05:09.432Z,26.74
2018-08-09T15:07:37.090Z,26.72
2018-08-09T15:10:04.991Z,26.71
2018-08-09T15:12:32.568Z,26.70
2018-08-09T15:15:00.211Z,26.70
2018-08-09T15:17:27.730Z,26.70
2018-08-09T15:19:55.186Z,26.69
2018-08-09T15:22:23.097Z,26.71
2018-08-09T15:24:50.654Z,26.72
2018-08-09T15:27:18.113Z,26.72
2018-08-09T15:29:45.815Z,26.69
2018-08-09T15:32:13.398Z,26.68
2018-08-09T15:34:40.911Z,26.71
2018-08-09T15:37:08.585Z,26.72
2018-08-09T15:39:36.101Z,26.73
2018-08-09T15:42:03.643Z,26.74
2018-08-09T15:44:31.614Z,26.77
2018-08-09T15:46:59.194Z,26.85
2018-08-09T15:49:26.818Z,26.90
2018-08-09T15:51:54.538Z,26.95
2018-08-09T15:54:22.094Z,27.00
2018-08-09T15:56:49.628Z,27.07
2018-08-09T15:59:17.395Z,27.13
2018-08-09T16:01:44.917Z,27.16
2018-08-09T16:04:12.507Z,27.17
2018-08-09T16:06:40.009Z,27.14
2018-08-09T16:09:13.515Z,27.09
2018-08-09T16:11:41.232Z,27.06
2018-08-09T16:14:08.813Z,27.06
2018-08-09T16:16:36.397Z,27.05
2018-08-09T16:19:04.204Z,26.98
2018-08-09T16:21:31.969Z,26.92
2018-08-09T16:23:59.522Z,26.88
2018-08-09T16:26:27.227Z,26.85
2018-08-09T16:28:54.805Z,26.80
2018-08-09T16:31:22.285Z,26.79
2018-08-09T16:33:50.017Z,26.76
2018-08-09T16:36:17.524Z,26.74
2018-08-09T16:38:45.035Z,26.72
2018-08-09T16:41:12.832Z,26.72
2018-08-09T16:43:40.445Z,26.68
2018-08-09T16:46:07.987Z,26.65
2018-08-09T16:48:36.108Z,26.62
2018-08-09T16:51:03.939Z,26.61
2018-08-09T16:53:31.376Z,26.62
2018-08-09T16:55:59.038Z,26.61
2018-08-09T16:58:26.608Z,26.59
2018-08-09T17:00:54.268Z,26.56
2018-08-09T17:03:21.915Z,26.54
2018-08-09T17:05:49.460Z,26.53
2018-08-09T17:08:17.017Z,26.53
2018-08-09T17:10:44.778Z,26.54
2018-08-09T17:13:12.213Z,26.54
2018-08-09T17:15:39.767Z,26.52
2018-08-09T17:18:07.521Z,26.52
2018-08-09T17:20:35.049Z,26.49
2018-08-09T17:23:03.661Z,26.47
2018-08-09T17:25:31.565Z,26.45
2018-08-09T17:27:59.149Z,26.40
2018-08-09T17:30:27.636Z,26.37
2018-08-09T17:32:56.035Z,26.32
2018-08-09T17:35:23.642Z,26.30
2018-08-09T17:37:51.417Z,26.28
2018-08-09T17:40:24.773Z,26.25
2018-08-09T17:42:53.045Z,26.22
2018-08-09T17:45:23.149Z,26.19
2018-08-09T17:47:50.938Z,26.14
2018-08-09T17:50:18.567Z,26.09
2018-08-09T17:52:46.377Z,26.05
2018-08-09T17:55:14.589Z,26.01
2018-08-09T17:57:42.916Z,25.86
2018-08-09T18:00:15.483Z,25.87
2018-08-09T18:02:43.084Z,25.79
2018-08-09T18:05:10.806Z,25.72
2018-08-09T18:07:38.617Z,25.57
2018-08-09T18:10:11.187Z,25.39
2018-08-09T18:12:38.765Z,25.22
2018-08-09T18:15:06.648Z,25.07
2018-08-09T18:17:34.229Z,24.96
2018-08-09T18:20:01.656Z,24.84
2018-08-09T18:22:29.360Z,24.72
2018-08-09T18:24:57.128Z,24.58
2018-08-09T18:27:24.613Z,24.50
2018-08-09T18:29:52.239Z,24.38
2018-08-09T18:32:19.755Z,24.26
2018-08-09T18:34:47.210Z,24.16
2018-08-09T18:37:14.824Z,24.05
2018-08-09T18:39:42.293Z,23.95
2018-08-09T18:42:09.908Z,23.85
2018-08-09T18:44:37.487Z,23.79
2018-08-09T18:47:04.993Z,23.67
2018-08-09T18:49:32.541Z,23.56
2018-08-09T18:52:00.130Z,23.46
2018-08-09T18:54:27.744Z,23.37
2018-08-09T18:56:55.268Z,23.31
2018-08-09T18:59:23.007Z,23.27
2018-08-09T19:01:50.519Z,23.23
2018-08-09T19:04:18.104Z,23.17
2018-08-09T19:06:45.740Z,23.08
2018-08-09T19:09:13.282Z,22.99
2018-08-09T19:11:40.737Z,22.90
2018-08-09T19:14:08.402Z,22.83
2018-08-09T19:16:36.128Z,22.77
2018-08-09T19:19:03.777Z,22.70
2018-08-09T19:21:31.392Z,22.65
2018-08-09T19:23:58.997Z,22.59
2018-08-09T19:26:26.565Z,22.52
2018-08-09T19:28:54.241Z,22.47
2018-08-09T19:31:21.777Z,22.39
2018-08-09T19:33:49.227Z,22.32
2018-08-09T19:36:16.905Z,22.27
2018-08-09T19:38:44.663Z,22.20
2018-08-09T19:41:12.102Z,22.17
2018-08-09T19:43:39.836Z,22.14
2018-08-09T19:46:07.429Z,22.12
2018-08-09T19:48:34.953Z,22.11
2018-08-09T19:51:02.647Z,22.11
2018-08-09T19:53:30.162Z,22.10
2018-08-09T19:58:24.749Z,22.07
2018-08-09T20:00:52.276Z,22.04
2018-08-09T20:03:19.857Z,22.00
2018-08-09T20:05:47.471Z,21.95
2018-08-09T20:08:14.950Z,21.91
2018-08-09T20:10:42.423Z,21.87
2018-08-09T20:13:10.000Z,21.82
2018-08-09T20:15:37.504Z,21.78
2018-08-09T20:18:05.150Z,21.75
2018-08-09T20:20:32.795Z,21.72
2018-08-09T20:23:00.325Z,21.71
2018-08-09T20:25:27.855Z,21.69
2018-08-09T20:27:55.511Z,21.66
2018-08-09T20:30:23.012Z,21.61
2018-08-09T20:32:50.514Z,21.58
2018-08-09T20:35:19.692Z,21.57
2018-08-09T20:37:47.620Z,21.53
2018-08-09T20:40:15.826Z,21.49
2018-08-09T20:42:43.921Z,21.48
2018-08-09T20:45:12.975Z,21.46
2018-08-09T20:47:40.539Z,21.44
2018-08-09T20:50:10.418Z,21.40
2018-08-09T20:52:38.410Z,21.37
2018-08-09T20:55:06.555Z,21.34
2018-08-09T20:57:34.434Z,21.28
2018-08-09T21:00:02.013Z,21.23
2018-08-09T21:02:29.490Z,21.20
2018-08-09T21:04:57.285Z,21.17
2018-08-09T21:07:24.832Z,21.12
2018-08-09T21:09:52.330Z,21.09
2018-08-09T21:12:19.976Z,21.05
2018-08-09T21:14:47.531Z,21.00
2018-08-09T21:17:15.105Z,20.95
2018-08-09T21:19:42.763Z,20.91
2018-08-09T21:22:10.213Z,20.88
2018-08-09T21:24:37.725Z,20.87
2018-08-09T21:27:05.349Z,20.87
2018-08-09T21:29:32.894Z,20.88
2018-08-09T21:32:00.371Z,20.89
2018-08-09T21:34:28.058Z,20.89
2018-08-09T21:36:55.619Z,20.91
2018-08-09T21:39:23.090Z,20.91
2018-08-09T21:41:50.878Z,20.93
2018-08-09T21:44:18.464Z,20.91
2018-08-09T21:46:45.928Z,20.90
2018-08-09T21:49:13.572Z,20.92
2018-08-09T21:51:41.081Z,20.92
2018-08-09T21:54:08.519Z,20.91
2018-08-09T21:56:36.304Z,20.90
2018-08-09T21:59:04.147Z,20.89
2018-08-09T22:01:31.697Z,20.87
2018-08-09T22:03:59.453Z,20.87
2018-08-09T22:06:32.502Z,20.86
2018-08-09T22:09:05.568Z,20.85
2018-08-09T22:11:38.596Z,20.78
2018-08-09T22:14:11.571Z,20.76
2018-08-09T22:16:44.696Z,20.76
2018-08-09T22:19:17.832Z,20.75
2018-08-09T22:21:51.185Z,20.72
2018-08-09T22:24:18.887Z,20.72
2018-08-09T22:26:46.374Z,20.72
2018-08-09T22:29:13.893Z,20.73
2018-08-09T22:31:41.581Z,20.73
2018-08-09T22:34:09.537Z,20.71
2018-08-09T22:36:37.059Z,20.68
2018-08-09T22:39:07.485Z,20.65
2018-08-09T22:41:34.973Z,20.62
2018-08-09T22:44:02.810Z,20.61
2018-08-09T22:46:30.480Z,20.58
2018-08-09T22:48:58.000Z,20.59
2018-08-09T22:51:25.533Z,20.59
2018-08-09T22:53:53.210Z,20.59
2018-08-09T22:56:20.768Z,20.59
2018-08-09T22:58:48.289Z,20.62
2018-08-09T23:01:16.239Z,20.62
2018-08-09T23:03:43.898Z,20.63
2018-08-09T23:06:11.502Z,20.65
2018-08-09T23:08:39.264Z,20.65
2018-08-09T23:11:07.158Z,20.67
2018-08-09T23:13:34.691Z,20.68
2018-08-09T23:16:02.403Z,20.67
2018-08-09T23:18:30.017Z,20.69
2018-08-09T23:20:57.480Z,20.69
2018-08-09T23:23:25.151Z,20.69
2018-08-09T23:25:52.670Z,20.69
2018-08-09T23:28:20.202Z,20.68
2018-08-09T23:30:48.024Z,20.69
2018-08-09T23:33:18.523Z,20.67
2018-08-09T23:35:46.012Z,20.68
2018-08-09T23:38:13.744Z,20.68
2018-08-09T23:40:41.286Z,20.68
2018-08-09T23:43:08.876Z,20.68
2018-08-09T23:45:36.604Z,20.67
2018-08-09T23:48:04.308Z,20.66
2018-08-09T23:50:31.835Z,20.67
2018-08-09T23:52:59.575Z,20.67
2018-08-09T23:55:27.076Z,20.67
2018-08-09T23:57:54.569Z,20.65
